createdAt,value
2022-09-07T00:00:49.867Z,2.50
2022-09-07T00:03:18.205Z,3.08
2022-09-07T00:05:47.263Z,2.60
2022-09-07T00:08:18.398Z,2.92
2022-09-07T00:10:53.730Z,2.17
2022-09-07T00:13:22.392Z,2.80
2022-09-07T00:15:50.418Z,2.80
2022-09-07T00:18:18.677Z,2.95
2022-09-07T00:20:46.950Z,2.80
2022-09-07T00:23:16.234Z,2.75
2022-09-07T00:25:44.158Z,3.00
2022-09-07T00:28:12.093Z,2.60
2022-09-07T00:30:42.946Z,2.33
2022-09-07T00:33:11.265Z,2.50
2022-09-07T00:35:42.757Z,2.10
2022-09-07T00:38:10.836Z,2.00
2022-09-07T00:40:40.214Z,2.05
2022-09-07T00:43:09.053Z,1.75
2022-09-07T00:45:36.973Z,1.80
2022-09-07T00:48:07.941Z,2.07
2022-09-07T00:50:41.823Z,2.00
2022-09-07T00:53:17.153Z,1.90
2022-09-07T00:55:50.416Z,1.95
2022-09-07T00:58:20.439Z,1.67
2022-09-07T01:00:49.768Z,1.90
2022-09-07T01:03:20.931Z,1.80
2022-09-07T01:05:53.698Z,1.80
2022-09-07T01:08:22.198Z,2.20
2022-09-07T01:10:51.901Z,2.17
2022-09-07T01:13:19.810Z,2.10
2022-09-07T01:16:00.757Z,2.00
2022-09-07T01:18:38.906Z,2.00
2022-09-07T01:21:24.798Z,2.08
2022-09-07T01:24:13.126Z,1.80
2022-09-07T01:27:18.757Z,1.83
2022-09-07T01:29:56.607Z,1.52
2022-09-07T01:32:37.147Z,1.50
2022-09-07T01:35:11.233Z,1.70
2022-09-07T01:37:45.942Z,1.43
2022-09-07T01:40:18.021Z,1.55
2022-09-07T01:42:54.329Z,1.20
2022-09-07T01:45:26.848Z,1.20
2022-09-07T01:47:57.915Z,1.60
2022-09-07T01:50:31.113Z,1.50
2022-09-07T01:53:02.438Z,1.47
2022-09-07T01:55:34.484Z,1.40
2022-09-07T01:58:12.503Z,1.50
2022-09-07T02:00:44.610Z,1.50
2022-09-07T02:03:16.594Z,1.42
2022-09-07T02:05:50.582Z,1.50
2022-09-07T02:08:23.082Z,1.33
2022-09-07T02:10:55.261Z,1.30
2022-09-07T02:13:31.506Z,1.40
2022-09-07T02:16:03.237Z,1.60
2022-09-07T02:18:38.156Z,1.50
2022-09-07T02:21:08.350Z,1.20
2022-09-07T02:23:41.829Z,1.20
2022-09-07T02:26:16.184Z,1.20
2022-09-07T02:28:45.674Z,1.10
2022-09-07T02:31:13.844Z,1.35
2022-09-07T02:33:42.979Z,1.30
2022-09-07T02:36:13.108Z,1.13
2022-09-07T02:38:41.046Z,1.20
2022-09-07T02:41:31.085Z,1.20
2022-09-07T02:44:01.158Z,1.10
2022-09-07T02:46:43.289Z,1.40
2022-09-07T02:49:22.497Z,1.15
2022-09-07T02:52:03.525Z,1.20
2022-09-07T02:54:44.809Z,1.25
2022-09-07T02:57:22.285Z,1.30
2022-09-07T03:00:01.572Z,1.20
2022-09-07T03:02:35.725Z,1.40
2022-09-07T03:05:06.965Z,1.40
2022-09-07T03:07:44.006Z,1.15
2022-09-07T03:10:14.791Z,1.58
2022-09-07T03:12:45.845Z,1.45
2022-09-07T03:15:16.893Z,1.50
2022-09-07T03:17:46.323Z,1.40
2022-09-07T03:20:16.448Z,1.35
2022-09-07T03:22:44.668Z,1.60
2022-09-07T03:25:12.847Z,1.70
2022-09-07T03:27:40.785Z,1.50
2022-09-07T03:30:11.348Z,1.75
2022-09-07T03:32:40.934Z,1.57
2022-09-07T03:35:10.000Z,1.70
2022-09-07T03:37:38.134Z,1.58
2022-09-07T03:40:08.650Z,1.70
2022-09-07T03:42:36.994Z,1.70
2022-09-07T03:45:06.507Z,1.70
2022-09-07T03:47:35.456Z,1.52
2022-09-07T03:50:06.755Z,1.98
2022-09-07T03:52:35.604Z,1.45
2022-09-07T03:55:03.601Z,1.90
2022-09-07T03:57:31.539Z,1.90
2022-09-07T03:59:59.427Z,1.70
2022-09-07T04:02:27.452Z,1.60
2022-09-07T04:04:55.426Z,1.67
2022-09-07T04:07:24.729Z,1.70
2022-09-07T04:09:52.653Z,1.90
2022-09-07T04:12:20.569Z,1.60
2022-09-07T04:14:49.094Z,1.90
2022-09-07T04:17:16.979Z,1.88
2022-09-07T04:19:44.940Z,2.17
2022-09-07T04:22:12.840Z,1.90
2022-09-07T04:24:42.141Z,1.60
2022-09-07T04:27:10.035Z,1.50
2022-09-07T04:29:38.307Z,1.50
2022-09-07T04:32:06.449Z,1.48
2022-09-07T04:34:34.402Z,1.60
2022-09-07T04:37:02.367Z,1.70
2022-09-07T04:39:30.410Z,1.70
2022-09-07T04:41:59.755Z,1.73
2022-09-07T04:44:27.727Z,1.70
2022-09-07T04:46:55.642Z,1.73
2022-09-07T04:49:23.530Z,1.20
2022-09-07T04:51:51.440Z,1.70
2022-09-07T04:54:19.326Z,1.50
2022-09-07T04:56:47.233Z,1.80
2022-09-07T04:59:16.488Z,1.40
2022-09-07T05:01:44.438Z,1.73
2022-09-07T05:04:12.403Z,1.80
2022-09-07T05:06:40.333Z,1.45
2022-09-07T05:09:08.292Z,1.40
2022-09-07T05:11:36.256Z,1.37
2022-09-07T05:14:05.309Z,1.90
2022-09-07T05:16:35.112Z,1.50
2022-09-07T05:19:04.690Z,1.50
2022-09-07T05:21:34.236Z,1.40
2022-09-07T05:24:03.190Z,1.80
2022-09-07T05:26:32.759Z,1.67
2022-09-07T05:31:51.664Z,1.60
2022-09-07T05:34:35.006Z,1.70
2022-09-07T05:37:03.599Z,1.70
2022-09-07T05:39:32.043Z,1.90
2022-09-07T05:42:00.006Z,1.90
2022-09-07T05:47:12.809Z,2.10
2022-09-07T05:49:40.794Z,2.30
2022-09-07T05:52:08.721Z,2.13
2022-09-07T05:54:36.616Z,2.05
2022-09-07T05:57:04.729Z,2.00
2022-09-07T05:59:32.664Z,2.40
2022-09-07T06:02:01.410Z,2.20
2022-09-07T06:04:30.744Z,2.20
2022-09-07T06:07:20.582Z,2.55
2022-09-07T06:12:34.741Z,2.53
2022-09-07T06:15:02.777Z,3.13
2022-09-07T06:17:31.165Z,2.80
2022-09-07T06:20:00.581Z,2.80
2022-09-07T06:22:31.012Z,2.60
2022-09-07T06:24:59.300Z,3.05
2022-09-07T06:27:27.163Z,3.10
2022-09-07T06:29:55.618Z,2.75
2022-09-07T06:35:13.660Z,3.27
2022-09-07T06:37:42.108Z,3.42
2022-09-07T06:40:12.006Z,3.88
2022-09-07T06:42:40.000Z,4.05
2022-09-07T06:45:10.073Z,3.80
2022-09-07T06:47:38.162Z,4.10
2022-09-07T06:50:06.639Z,4.10
2022-09-07T06:55:25.874Z,5.70
2022-09-07T06:57:54.645Z,5.90
2022-09-07T07:00:22.708Z,7.18
2022-09-07T07:02:50.680Z,7.00
2022-09-07T07:05:18.609Z,6.35
2022-09-07T07:07:47.835Z,7.03
2022-09-07T07:10:16.546Z,7.32
2022-09-07T07:15:12.742Z,7.90
2022-09-07T07:17:40.615Z,7.20
2022-09-07T07:20:10.007Z,7.83
2022-09-07T07:22:46.821Z,8.07
2022-09-07T07:25:16.548Z,7.80
2022-09-07T07:27:45.893Z,7.40
2022-09-07T07:30:14.603Z,8.40
2022-09-07T07:32:43.441Z,7.32
2022-09-07T07:35:20.823Z,8.98
2022-09-07T07:37:49.162Z,8.40
2022-09-07T07:40:21.398Z,8.23
2022-09-07T07:42:52.299Z,8.20
2022-09-07T07:48:07.970Z,8.05
2022-09-07T07:50:35.878Z,7.47
2022-09-07T07:55:53.033Z,8.20
2022-09-07T07:58:21.489Z,8.10
2022-09-07T08:00:57.072Z,9.02
2022-09-07T08:03:26.213Z,8.10
2022-09-07T08:05:54.393Z,9.55
2022-09-07T08:08:23.174Z,10.05
2022-09-07T08:10:52.933Z,9.70
2022-09-07T08:13:21.419Z,10.02
2022-09-07T08:15:49.486Z,10.23
2022-09-07T08:18:18.554Z,10.95
2022-09-07T08:20:46.539Z,9.70
2022-09-07T08:23:15.245Z,9.63
2022-09-07T08:25:53.024Z,9.57
2022-09-07T08:28:21.805Z,9.68
2022-09-07T08:30:50.016Z,9.55
2022-09-07T08:33:18.094Z,9.65
2022-09-07T08:35:57.117Z,9.53
2022-09-07T08:38:25.273Z,9.20
2022-09-07T08:40:54.886Z,8.63
2022-09-07T08:43:47.061Z,9.40
2022-09-07T08:46:27.973Z,8.18
2022-09-07T08:48:57.229Z,8.90
2022-09-07T08:51:35.740Z,8.57
2022-09-07T08:54:05.435Z,8.60
2022-09-07T08:56:38.442Z,8.30
2022-09-07T08:59:15.427Z,8.40
2022-09-07T09:02:26.885Z,8.57
2022-09-07T09:04:32.876Z,7.43
2022-09-07T09:07:09.832Z,7.57
2022-09-07T09:09:51.765Z,7.60
2022-09-07T09:12:32.355Z,6.53
2022-09-07T09:15:16.535Z,6.50
2022-09-07T09:17:48.927Z,6.18
2022-09-07T09:20:24.863Z,5.20
2022-09-07T09:22:55.497Z,6.03
2022-09-07T09:25:28.082Z,6.78
2022-09-07T09:27:57.309Z,5.45
2022-09-07T09:30:26.549Z,5.13
2022-09-07T09:33:13.994Z,5.35
2022-09-07T09:35:42.461Z,4.15
2022-09-07T09:38:35.398Z,3.75
2022-09-07T09:41:06.813Z,4.10
2022-09-07T09:43:44.563Z,5.05
2022-09-07T09:46:23.667Z,3.20
2022-09-07T09:48:57.908Z,3.53
2022-09-07T09:54:25.490Z,2.65
2022-09-07T09:56:53.434Z,2.80
2022-09-07T10:05:28.800Z,3.00
2022-09-07T10:07:57.304Z,2.65
2022-09-07T10:10:27.400Z,2.30
2022-09-07T10:12:56.492Z,2.10
2022-09-07T10:15:41.373Z,2.10
2022-09-07T10:18:19.224Z,1.90
2022-09-07T10:20:47.065Z,2.05
2022-09-07T10:23:22.900Z,1.80
2022-09-07T10:25:51.154Z,1.80
2022-09-07T10:28:21.298Z,2.13
2022-09-07T10:31:02.786Z,1.70
2022-09-07T10:33:42.675Z,1.92
2022-09-07T10:36:17.032Z,2.45
2022-09-07T10:38:51.709Z,2.05
2022-09-07T10:41:22.964Z,1.73
2022-09-07T10:43:51.911Z,1.92
2022-09-07T10:46:57.576Z,1.88
2022-09-07T10:49:32.838Z,2.03
2022-09-07T10:52:14.612Z,2.30
2022-09-07T10:54:51.719Z,2.00
2022-09-07T10:57:46.920Z,1.80
2022-09-07T11:00:19.065Z,2.45
2022-09-07T11:06:03.340Z,1.98
2022-09-07T11:14:26.581Z,1.90
2022-09-07T11:16:58.939Z,2.27
2022-09-07T11:19:35.854Z,2.30
2022-09-07T11:22:18.171Z,1.80
2022-09-07T11:25:29.101Z,2.00
2022-09-07T11:27:44.711Z,1.90
2022-09-07T11:30:21.599Z,1.90
2022-09-07T11:33:01.761Z,1.75
2022-09-07T11:35:40.673Z,1.73
2022-09-07T11:38:18.824Z,1.50
2022-09-07T11:40:58.565Z,1.67
2022-09-07T11:43:31.339Z,1.70
2022-09-07T11:46:04.871Z,1.67
2022-09-07T11:48:37.706Z,1.53
2022-09-07T11:51:14.024Z,1.88
2022-09-07T11:53:47.421Z,1.60
2022-09-07T11:56:19.205Z,1.70
2022-09-07T11:59:04.717Z,1.73
2022-09-07T12:01:46.550Z,1.73
2022-09-07T12:04:36.218Z,1.70
2022-09-07T12:07:29.114Z,1.50
2022-09-07T12:10:25.392Z,1.67
2022-09-07T12:13:27.796Z,1.60
2022-09-07T12:16:03.694Z,1.70
2022-09-07T12:18:57.324Z,1.70
2022-09-07T12:21:41.961Z,1.52
2022-09-07T12:24:37.186Z,1.33
2022-09-07T12:27:06.397Z,1.20
2022-09-07T12:29:34.714Z,1.70
2022-09-07T12:32:53.254Z,1.80
2022-09-07T12:34:55.665Z,1.70
2022-09-07T12:37:44.972Z,1.33
2022-09-07T12:40:46.829Z,1.95
2022-09-07T12:43:34.324Z,1.60
2022-09-07T12:46:02.672Z,1.50
2022-09-07T12:48:44.298Z,1.67
2022-09-07T12:51:59.575Z,1.40
2022-09-07T12:54:14.749Z,1.88
2022-09-07T12:57:28.681Z,1.98
2022-09-07T12:59:48.716Z,2.20
2022-09-07T13:02:35.519Z,1.50
2022-09-07T13:05:15.488Z,1.70
2022-09-07T13:08:09.454Z,1.33
2022-09-07T13:10:38.929Z,1.40
2022-09-07T13:14:01.879Z,1.65
2022-09-07T13:17:15.993Z,2.00
2022-09-07T13:19:56.095Z,1.70
2022-09-07T13:22:55.830Z,1.23
2022-09-07T13:25:46.520Z,1.60
2022-09-07T13:28:41.353Z,2.10
2022-09-07T13:31:25.791Z,1.67
2022-09-07T13:33:54.741Z,1.70
2022-09-07T13:36:26.993Z,1.50
2022-09-07T13:38:55.701Z,1.50
2022-09-07T13:41:26.095Z,1.50
2022-09-07T13:44:00.571Z,1.23
2022-09-07T13:46:54.354Z,1.48
2022-09-07T13:49:55.733Z,1.67
2022-09-07T13:52:33.279Z,1.73
2022-09-07T13:55:10.825Z,1.50
2022-09-07T13:57:50.755Z,1.70
2022-09-07T14:00:20.845Z,1.60
2022-09-07T14:02:56.560Z,1.40
2022-09-07T14:05:25.272Z,1.50
2022-09-07T14:07:53.153Z,1.50
2022-09-07T14:10:24.130Z,1.67
2022-09-07T14:12:53.433Z,1.60
2022-09-07T14:15:28.872Z,1.65
2022-09-07T14:18:04.986Z,1.70
2022-09-07T14:20:38.272Z,1.40
2022-09-07T14:23:12.973Z,1.30
2022-09-07T14:28:37.586Z,1.45
2022-09-07T14:31:10.997Z,2.00
2022-09-07T14:33:41.742Z,1.50
2022-09-07T14:36:36.277Z,1.55
2022-09-07T14:39:04.822Z,1.40
2022-09-07T14:41:34.675Z,1.40
2022-09-07T14:44:03.008Z,1.90
2022-09-07T14:46:34.664Z,1.77
2022-09-07T14:49:07.598Z,1.80
2022-09-07T14:51:37.013Z,1.70
2022-09-07T14:54:07.694Z,1.60
2022-09-07T14:56:37.643Z,1.20
2022-09-07T14:59:37.182Z,1.20
2022-09-07T15:02:32.476Z,1.30
2022-09-07T15:05:28.424Z,1.40
2022-09-07T15:07:58.821Z,1.40
2022-09-07T15:10:30.524Z,1.40
2022-09-07T15:13:01.368Z,1.50
2022-09-07T15:15:32.245Z,1.38
2022-09-07T15:18:07.753Z,1.50
2022-09-07T15:20:42.990Z,1.40
2022-09-07T15:23:13.203Z,1.30
2022-09-07T15:25:44.339Z,1.50
2022-09-07T15:34:02.612Z,1.37
2022-09-07T15:36:31.971Z,1.10
2022-09-07T15:39:00.730Z,1.58
2022-09-07T15:41:29.531Z,1.88
2022-09-07T15:43:57.663Z,1.65
2022-09-07T15:46:25.767Z,1.48
2022-09-07T15:48:55.330Z,1.33
2022-09-07T15:54:14.397Z,1.70
2022-09-07T15:56:44.411Z,2.20
2022-09-07T15:59:31.574Z,1.80
2022-09-07T16:01:59.752Z,1.50
2022-09-07T16:04:27.857Z,1.90
2022-09-07T16:06:57.208Z,2.05
2022-09-07T16:09:25.272Z,2.17
2022-09-07T16:11:53.423Z,2.47
2022-09-07T16:14:21.453Z,2.38
2022-09-07T16:19:40.991Z,2.40
2022-09-07T16:23:13.136Z,2.50
2022-09-07T16:24:58.563Z,2.72
2022-09-07T16:27:30.426Z,1.90
2022-09-07T16:30:00.245Z,2.10
2022-09-07T16:35:16.129Z,1.90
2022-09-07T16:40:33.661Z,1.93
2022-09-07T16:43:01.598Z,2.17
2022-09-07T16:48:17.355Z,1.90
2022-09-07T16:51:01.269Z,1.85
2022-09-07T16:53:32.793Z,1.90
2022-09-07T16:56:05.012Z,1.73
2022-09-07T16:58:37.258Z,1.90
2022-09-07T17:01:06.551Z,1.65
2022-09-07T17:03:35.510Z,1.80
2022-09-07T17:06:04.578Z,1.90
2022-09-07T17:08:34.886Z,1.63
2022-09-07T17:11:04.341Z,1.50
2022-09-07T17:13:32.464Z,1.77
2022-09-07T17:16:03.459Z,2.20
2022-09-07T17:21:20.003Z,1.65
2022-09-07T17:23:54.790Z,1.70
2022-09-07T17:26:26.587Z,1.73
2022-09-07T17:28:59.768Z,1.50
2022-09-07T17:34:18.532Z,1.80
2022-09-07T17:36:46.488Z,1.80
2022-09-07T17:39:18.221Z,1.53
2022-09-07T17:41:47.285Z,1.80
2022-09-07T17:44:15.175Z,1.70
2022-09-07T17:46:43.131Z,2.20
2022-09-07T17:49:14.053Z,2.35
2022-09-07T17:51:42.186Z,1.15
2022-09-07T17:54:14.146Z,1.42
2022-09-07T17:56:44.602Z,2.40
2022-09-07T18:02:00.958Z,1.73
2022-09-07T18:04:29.250Z,2.30
2022-09-07T18:06:57.146Z,1.85
2022-09-07T18:09:25.043Z,2.00
2022-09-07T18:11:54.250Z,1.73
2022-09-07T18:14:22.237Z,1.40
2022-09-07T18:16:52.158Z,2.10
2022-09-07T18:19:20.271Z,1.98
2022-09-07T18:21:48.723Z,1.52
2022-09-07T18:24:19.218Z,1.70
2022-09-07T18:26:51.993Z,2.00
2022-09-07T18:29:33.483Z,1.50
2022-09-07T18:32:04.650Z,1.70
2022-09-07T18:34:33.688Z,1.70
2022-09-07T18:37:02.354Z,1.80
2022-09-07T18:39:30.948Z,1.77
2022-09-07T18:41:58.891Z,1.40
2022-09-07T18:47:23.330Z,2.10
2022-09-07T18:49:55.472Z,1.80
2022-09-07T18:55:11.840Z,1.70
2022-09-07T18:57:39.759Z,1.85
2022-09-07T19:00:10.934Z,1.95
2022-09-07T19:02:38.972Z,2.10
2022-09-07T19:07:55.621Z,2.45
2022-09-07T19:10:23.500Z,1.80
2022-09-07T19:12:51.388Z,1.70
2022-09-07T19:15:21.142Z,2.00
2022-09-07T19:17:49.067Z,1.63
2022-09-07T19:20:17.422Z,1.83
2022-09-07T19:22:45.298Z,2.10
2022-09-07T19:25:13.266Z,2.25
2022-09-07T19:27:41.170Z,2.00
2022-09-07T19:30:10.389Z,1.90
2022-09-07T19:32:39.594Z,2.03
2022-09-07T19:35:08.011Z,2.08
2022-09-07T19:37:35.922Z,2.20
2022-09-07T19:40:04.270Z,1.83
2022-09-07T19:42:32.562Z,2.20
2022-09-07T19:45:00.920Z,1.80
2022-09-07T19:47:28.778Z,2.00
2022-09-07T19:49:58.072Z,2.30
2022-09-07T19:52:26.871Z,2.50
2022-09-07T19:54:54.784Z,2.20
2022-09-07T19:57:22.654Z,2.30
2022-09-07T19:59:52.981Z,2.40
2022-09-07T20:02:20.859Z,2.90
2022-09-07T20:04:48.827Z,2.50
2022-09-07T20:07:18.084Z,2.60
2022-09-07T20:09:50.356Z,3.10
2022-09-07T20:12:19.109Z,2.28
2022-09-07T20:14:46.975Z,2.60
2022-09-07T20:17:14.838Z,2.53
2022-09-07T20:19:42.914Z,2.88
2022-09-07T20:22:10.758Z,2.30
2022-09-07T20:24:40.007Z,2.60
2022-09-07T20:27:08.923Z,2.60
2022-09-07T20:29:36.803Z,2.90
2022-09-07T20:32:04.774Z,2.45
2022-09-07T20:34:33.558Z,2.22
2022-09-07T20:37:02.071Z,2.80
2022-09-07T20:39:29.981Z,2.30
2022-09-07T20:41:59.210Z,3.10
2022-09-07T20:44:27.061Z,2.70
2022-09-07T20:46:55.038Z,2.40
2022-09-07T20:49:22.903Z,2.20
2022-09-07T20:51:50.821Z,2.28
2022-09-07T20:54:18.953Z,2.55
2022-09-07T20:56:46.811Z,2.80
2022-09-07T20:59:16.233Z,2.42
2022-09-07T21:01:44.110Z,2.80
2022-09-07T21:04:12.189Z,2.50
2022-09-07T21:06:40.089Z,2.20
2022-09-07T21:09:07.995Z,2.10
2022-09-07T21:11:36.627Z,2.42
2022-09-07T21:14:06.889Z,2.53
2022-09-07T21:16:36.922Z,3.00
2022-09-07T21:19:07.112Z,2.58
2022-09-07T21:21:39.302Z,2.55
2022-09-07T21:24:17.793Z,2.33
2022-09-07T21:26:46.034Z,2.60
2022-09-07T21:29:18.442Z,2.78
2022-09-07T21:31:48.342Z,2.40
2022-09-07T21:34:16.984Z,2.00
2022-09-07T21:36:45.425Z,2.50
2022-09-07T21:39:14.617Z,2.33
2022-09-07T21:41:43.692Z,2.50
2022-09-07T21:44:13.668Z,2.40
2022-09-07T21:46:42.206Z,2.90
2022-09-07T21:49:11.781Z,2.77
2022-09-07T21:51:39.927Z,2.70
2022-09-07T21:54:08.181Z,2.60
2022-09-07T21:56:36.362Z,3.00
2022-09-07T21:59:06.560Z,2.92
2022-09-07T22:01:34.625Z,2.50
2022-09-07T22:04:04.807Z,2.60
2022-09-07T22:06:34.966Z,2.30
2022-09-07T22:09:04.911Z,2.42
2022-09-07T22:11:32.947Z,2.45
2022-09-07T22:14:02.674Z,2.65
2022-09-07T22:16:31.215Z,2.30
2022-09-07T22:18:59.203Z,3.00
2022-09-07T22:21:28.503Z,2.47
2022-09-07T22:23:59.307Z,2.50
2022-09-07T22:26:29.394Z,2.30
2022-09-07T22:28:59.010Z,2.13
2022-09-07T22:31:29.138Z,2.60
2022-09-07T22:33:58.556Z,3.00
2022-09-07T22:36:28.899Z,2.40
2022-09-07T22:38:59.581Z,2.30
2022-09-07T22:41:29.140Z,2.30
2022-09-07T22:43:57.303Z,2.40
2022-09-07T22:46:26.929Z,2.07
2022-09-07T22:48:55.997Z,2.10
2022-09-07T22:51:25.232Z,2.90
2022-09-07T22:53:53.801Z,1.90
2022-09-07T22:56:24.977Z,2.10
2022-09-07T22:58:55.308Z,2.70
2022-09-07T23:01:23.557Z,2.45
2022-09-07T23:03:51.608Z,2.50
2022-09-07T23:06:24.011Z,2.40
2022-09-07T23:08:52.747Z,2.60
2022-09-07T23:11:22.595Z,2.50
2022-09-07T23:13:51.758Z,2.58
2022-09-07T23:16:20.036Z,2.55
2022-09-07T23:18:48.287Z,3.03
2022-09-07T23:21:16.731Z,2.60
2022-09-07T23:23:44.699Z,2.60
2022-09-07T23:26:12.574Z,2.60
2022-09-07T23:28:41.731Z,3.38
2022-09-07T23:31:11.533Z,3.10
2022-09-07T23:33:39.506Z,2.70
2022-09-07T23:36:08.287Z,2.80
2022-09-07T23:38:36.310Z,3.80
2022-09-07T23:41:04.383Z,3.70
2022-09-07T23:43:32.365Z,3.63
2022-09-07T23:46:01.702Z,3.70
2022-09-07T23:48:29.697Z,3.85
2022-09-07T23:50:57.888Z,4.20
2022-09-07T23:53:26.047Z,4.50
2022-09-07T23:55:54.266Z,4.38
2022-09-07T23:58:23.654Z,3.90
